Time;durP1;ratioP1;P1;durP2;ratioP2;P2;SDS_P1;SDS_P2;PMS_P1;PMS_P2;Temp;Humidity;BMP_temperature;BMP_pressure;BME280_temperature;BME280_humidity;BME280_pressure;Samples;Min_cycle;Max_cycle;Signal;HPM_P1;HPM_P2
2022/10/19 00:00:19;;;;;;;24.02;11.60;;;;;;;12.88;100.00;99449.66;5119883;28;20057;-92
2022/10/19 00:02:45;;;;;;;23.73;12.05;;;;;;;12.95;100.00;99467.28;5114535;28;20044;-92
2022/10/19 00:05:11;;;;;;;23.08;11.65;;;;;;;13.00;100.00;99470.72;5117483;28;20032;-91
2022/10/19 00:07:37;;;;;;;26.83;11.88;;;;;;;12.98;100.00;99469.00;5121919;28;20055;-91
2022/10/19 00:10:03;;;;;;;26.50;13.45;;;;;;;12.97;100.00;99468.13;5121081;28;20062;-92
2022/10/19 00:12:29;;;;;;;26.67;12.52;;;;;;;12.83;100.00;99433.78;5118471;28;20036;-92
2022/10/19 00:14:57;;;;;;;27.05;13.27;;;;;;;12.81;100.00;99427.59;5118694;28;20046;-91
2022/10/19 00:17:23;;;;;;;24.35;12.93;;;;;;;12.94;100.00;99463.72;5119443;28;20476;-93
2022/10/19 00:19:49;;;;;;;26.92;11.88;;;;;;;12.79;100.00;99437.44;5118770;28;20108;-91
2022/10/19 00:22:14;;;;;;;24.65;11.45;;;;;;;12.84;100.00;99450.69;5118404;28;20051;-92
2022/10/19 00:24:40;;;;;;;24.45;12.38;;;;;;;12.71;100.00;99432.31;5120795;28;20564;-92
2022/10/19 00:27:06;;;;;;;23.48;12.75;;;;;;;12.68;100.00;99437.69;5118734;28;20393;-92
2022/10/19 00:29:32;;;;;;;23.80;11.35;;;;;;;12.79;100.00;99453.44;5118892;28;20052;-92
2022/10/19 00:31:59;;;;;;;23.98;11.75;;;;;;;12.77;100.00;99455.28;5119001;28;20047;-91
2022/10/19 00:34:25;;;;;;;24.60;12.05;;;;;;;12.59;100.00;99423.72;5118829;28;20043;-92
2022/10/19 00:36:51;;;;;;;23.15;11.50;;;;;;;12.63;100.00;99430.75;5118797;28;20119;-91
2022/10/19 00:39:17;;;;;;;24.40;11.75;;;;;;;12.68;100.00;99444.84;5118670;28;20043;-92
2022/10/19 00:41:45;;;;;;;29.98;13.65;;;;;;;12.58;100.00;99408.63;5119049;28;20047;-92
2022/10/19 00:44:48;;;;;;;23.92;11.27;;;;;;;12.79;100.00;99456.09;5115683;28;20044;-93
2022/10/19 00:47:17;;;;;;;24.02;12.30;;;;;;;12.75;100.00;99441.09;5117351;28;20028;-92
2022/10/19 00:49:45;;;;;;;22.00;11.80;;;;;;;12.72;100.00;99442.03;5117445;28;20074;-91
2022/10/19 00:52:14;;;;;;;22.73;11.82;;;;;;;12.71;100.00;99440.31;5118854;28;20523;-93
2022/10/19 00:54:42;;;;;;;23.73;10.85;;;;;;;12.71;100.00;99444.78;5117577;28;21097;-91
2022/10/19 00:57:09;;;;;;;21.73;10.87;;;;;;;12.51;100.00;99422.13;5117447;28;20039;-92
2022/10/19 00:59:37;;;;;;;24.48;12.00;;;;;;;12.48;100.00;99406.19;5118357;28;20408;-91
2022/10/19 01:02:04;;;;;;;25.58;11.40;;;;;;;12.56;100.00;99423.81;5117399;28;20058;-91
2022/10/19 01:04:34;;;;;;;24.08;11.98;;;;;;;12.53;100.00;99416.72;5119100;28;20047;-92
2022/10/19 01:07:02;;;;;;;26.80;12.70;;;;;;;12.47;100.00;99408.88;5117359;28;20048;-92
2022/10/19 01:09:28;;;;;;;27.88;13.55;;;;;;;12.55;100.00;99433.59;5118455;28;20039;-93
2022/10/19 01:12:03;;;;;;;28.38;13.93;;;;;;;12.45;100.00;99416.06;5118488;28;20507;-93
2022/10/19 01:14:42;;;;;;;25.52;13.73;;;;;;;12.42;100.00;99414.31;5117761;28;20050;-92
2022/10/19 01:17:20;;;;;;;28.80;14.32;;;;;;;12.40;100.00;99413.50;5117299;28;20091;-91
2022/10/19 01:20:11;;;;;;;26.40;13.27;;;;;;;12.37;100.00;99408.25;5118058;28;20122;-91
2022/10/19 01:22:53;;;;;;;27.67;13.35;;;;;;;12.43;100.00;99425.91;5117197;28;20044;-92
2022/10/19 01:25:23;;;;;;;23.27;12.10;;;;;;;12.41;100.00;99419.72;5118473;28;20130;-92
2022/10/19 01:28:19;;;;;;;26.98;13.23;;;;;;;12.41;100.00;99423.25;5117874;28;20028;-90
2022/10/19 01:30:54;;;;;;;22.23;11.77;;;;;;;12.42;100.00;99421.47;5115134;28;20048;-90
2022/10/19 01:33:34;;;;;;;25.15;11.80;;;;;;;12.42;100.00;99424.13;5117676;28;20038;-92
2022/10/19 01:36:17;;;;;;;20.58;10.70;;;;;;;12.38;100.00;99409.97;5115027;28;20412;-93
2022/10/19 01:38:51;;;;;;;21.75;11.38;;;;;;;12.24;100.00;99381.00;5118310;28;20083;-91
2022/10/19 01:41:25;;;;;;;21.15;11.15;;;;;;;12.40;100.00;99409.94;5118886;28;20493;-92
2022/10/19 01:44:00;;;;;;;23.40;12.48;;;;;;;12.42;100.00;99421.47;5118750;28;20059;-93
2022/10/19 01:46:35;;;;;;;24.85;12.02;;;;;;;12.28;100.00;99393.34;5117366;28;20064;-92
2022/10/19 01:49:06;;;;;;;24.40;11.73;;;;;;;12.35;100.00;99410.06;5118079;28;20416;-93
2022/10/19 01:51:35;;;;;;;25.98;12.77;;;;;;;12.41;100.00;99412.59;5117393;28;20052;-91
2022/10/19 01:54:05;;;;;;;23.83;11.52;;;;;;;12.36;100.00;99406.50;5118358;28;20035;-92
2022/10/19 01:56:33;;;;;;;23.17;11.05;;;;;;;12.20;100.00;99389.09;5118309;28;20501;-93
2022/10/19 01:59:02;;;;;;;22.52;12.65;;;;;;;12.35;100.00;99412.72;5118425;28;20048;-92
2022/10/19 02:01:34;;;;;;;20.80;10.82;;;;;;;12.22;100.00;99397.94;5117926;28;20044;-93
2022/10/19 02:04:02;;;;;;;22.88;11.35;;;;;;;12.13;100.00;99381.25;5117010;28;20039;-92
2022/10/19 02:06:28;;;;;;;23.27;11.98;;;;;;;12.20;100.00;99405.09;5118043;28;20055;-92
2022/10/19 02:08:54;;;;;;;26.80;12.05;;;;;;;12.15;100.00;99404.34;5119272;28;20035;-90
2022/10/19 02:11:21;;;;;;;21.42;10.52;;;;;;;12.14;100.00;99400.78;5122246;28;20066;-93
2022/10/19 02:13:50;;;;;;;24.70;10.90;;;;;;;12.19;100.00;99403.31;5123331;28;20066;-91
2022/10/19 02:16:22;;;;;;;22.15;11.18;;;;;;;12.07;100.00;99392.03;5122106;28;20462;-92
2022/10/19 02:18:51;;;;;;;23.52;10.98;;;;;;;12.01;100.00;99378.84;5122265;28;20112;-92
2022/10/19 02:21:18;;;;;;;23.75;11.07;;;;;;;11.97;100.00;99366.53;5122051;28;20038;-93
2022/10/19 02:23:44;;;;;;;21.42;11.00;;;;;;;11.99;100.00;99386.03;5122032;28;20508;-94
2022/10/19 02:26:10;;;;;;;20.67;10.88;;;;;;;12.06;100.00;99390.31;5123030;28;20040;-92
2022/10/19 02:28:37;;;;;;;20.45;10.95;;;;;;;12.06;100.00;99395.63;5122293;28;20040;-92
2022/10/19 02:31:03;;;;;;;20.75;11.25;;;;;;;11.87;100.00;99373.81;5122575;28;20040;-94
2022/10/19 02:33:30;;;;;;;22.92;10.75;;;;;;;11.99;100.00;99391.38;5122079;28;20040;-92
2022/10/19 02:35:58;;;;;;;21.15;11.20;;;;;;;11.80;100.00;99368.69;5122004;27;20035;-93
2022/10/19 02:38:25;;;;;;;21.98;10.65;;;;;;;11.92;100.00;99381.75;5120830;28;20031;-93
2022/10/19 02:40:57;;;;;;;20.60;10.88;;;;;;;11.79;100.00;99367.78;5122602;28;20036;-92
2022/10/19 02:43:25;;;;;;;22.35;10.50;;;;;;;11.90;100.00;99388.88;5122014;28;20512;-93
2022/10/19 02:45:58;;;;;;;24.95;12.40;;;;;;;11.75;100.00;99362.56;5122550;28;20032;-93
2022/10/19 02:48:28;;;;;;;24.65;12.02;;;;;;;11.85;100.00;99377.44;5120972;28;20133;-92
2022/10/19 02:50:54;;;;;;;24.92;11.98;;;;;;;11.84;100.00;99378.31;5121593;28;20362;-92
2022/10/19 02:53:21;;;;;;;27.00;12.63;;;;;;;11.67;100.00;99352.09;5122820;27;20036;-92
2022/10/19 02:55:48;;;;;;;24.50;12.02;;;;;;;11.80;100.00;99366.00;5121191;28;20031;-93
2022/10/19 02:58:14;;;;;;;27.35;13.00;;;;;;;11.83;100.00;99380.13;5121409;28;20038;-92
2022/10/19 03:00:40;;;;;;;29.40;12.82;;;;;;;11.71;100.00;99356.44;5122090;28;20039;-93
2022/10/19 03:03:06;;;;;;;24.95;12.35;;;;;;;11.69;100.00;99359.13;5116408;28;20488;-93
2022/10/19 03:05:32;;;;;;;25.88;12.52;;;;;;;11.74;100.00;99360.81;5120749;28;20052;-92
2022/10/19 03:07:58;;;;;;;25.17;12.27;;;;;;;11.75;100.00;99367.88;5120223;28;20036;-92
2022/10/19 03:10:25;;;;;;;28.73;13.60;;;;;;;11.80;100.00;99368.69;5121156;28;20492;-93
2022/10/19 03:12:51;;;;;;;24.38;12.00;;;;;;;11.84;100.00;99373.00;5121663;28;20043;-92
2022/10/19 03:15:17;;;;;;;27.75;13.68;;;;;;;11.88;100.00;99367.63;5121870;28;20039;-91
2022/10/19 03:17:44;;;;;;;26.08;11.95;;;;;;;11.82;100.00;99367.72;5120679;28;20040;-91
2022/10/19 03:20:10;;;;;;;25.00;11.88;;;;;;;11.92;100.00;99373.75;5121348;28;20032;-93
2022/10/19 03:22:36;;;;;;;32.40;14.77;;;;;;;11.84;100.00;99349.00;5121149;28;20142;-93
2022/10/19 03:25:04;;;;;;;27.23;13.43;;;;;;;11.93;100.00;99375.50;5122042;27;20068;-94
2022/10/19 03:27:32;;;;;;;27.27;14.10;;;;;;;11.69;100.00;99340.47;5121613;28;20044;-93
2022/10/19 03:29:58;;;;;;;28.17;13.82;;;;;;;11.67;100.00;99336.97;5120228;28;20047;-93
2022/10/19 03:32:24;;;;;;;30.95;12.85;;;;;;;11.80;100.00;99368.69;5120993;28;20058;-93
2022/10/19 03:34:49;;;;;;;26.40;12.63;;;;;;;11.76;100.00;99359.00;5120762;28;20046;-93
2022/10/19 03:37:15;;;;;;;27.58;12.77;;;;;;;11.62;100.00;99344.16;5120604;28;20042;-93
2022/10/19 03:39:41;;;;;;;26.45;12.15;;;;;;;11.60;100.00;99346.03;5121613;28;20039;-92
2022/10/19 03:42:07;;;;;;;23.83;12.73;;;;;;;11.66;100.00;99355.66;5120634;28;20050;-92
2022/10/19 03:44:34;;;;;;;27.80;11.90;;;;;;;11.72;100.00;99368.84;5121625;27;20043;-93
2022/10/19 03:47:00;;;;;;;30.83;12.43;;;;;;;11.53;100.00;99344.38;5116669;28;20043;-91
2022/10/19 03:49:26;;;;;;;21.13;11.20;;;;;;;11.66;100.00;99361.84;5119804;28;20047;-94
2022/10/19 03:51:51;;;;;;;22.05;12.57;;;;;;;11.50;100.00;99349.78;5120852;28;20061;-93
2022/10/19 03:54:17;;;;;;;21.45;11.50;;;;;;;11.51;100.00;99351.53;5121433;28;20126;-92
2022/10/19 03:56:43;;;;;;;21.88;12.50;;;;;;;11.48;100.00;99351.59;5120534;28;20044;-93
2022/10/19 03:59:12;;;;;;;24.13;12.10;;;;;;;11.52;100.00;99363.94;5119793;28;20042;-94
2022/10/19 04:01:42;;;;;;;20.15;10.68;;;;;;;11.38;100.00;99342.91;5120127;28;20124;-91
2022/10/19 04:04:11;;;;;;;22.83;11.25;;;;;;;11.35;100.00;99347.44;5118236;28;20524;-92
2022/10/19 04:06:39;;;;;;;24.42;12.20;;;;;;;11.44;100.00;99371.22;5119464;28;20069;-92
2022/10/19 04:09:07;;;;;;;27.10;12.15;;;;;;;11.24;100.00;99351.19;5118972;28;20078;-93
2022/10/19 04:11:33;;;;;;;24.60;12.18;;;;;;;11.21;100.00;99351.28;5118106;28;20048;-92
2022/10/19 04:14:00;;;;;;;25.83;11.90;;;;;;;11.41;100.00;99376.63;5117782;27;20483;-93
2022/10/19 04:16:28;;;;;;;23.95;11.98;;;;;;;11.28;100.00;99344.91;5120721;28;20047;-92
2022/10/19 04:18:56;;;;;;;23.20;11.30;;;;;;;11.31;100.00;99352.81;5121165;28;20428;-91
2022/10/19 04:21:23;;;;;;;20.80;10.68;;;;;;;11.34;100.00;99364.31;5119514;28;20446;-93
2022/10/19 04:23:51;;;;;;;26.30;12.63;;;;;;;11.44;100.00;99371.22;5121259;28;20511;-95
2022/10/19 04:26:19;;;;;;;28.43;11.67;;;;;;;11.24;100.00;99340.56;5121644;28;20044;-93
2022/10/19 04:28:46;;;;;;;21.50;11.40;;;;;;;11.33;100.00;99351.94;5121634;28;20071;-93
2022/10/19 04:31:12;;;;;;;22.92;12.07;;;;;;;11.32;100.00;99372.34;5120757;28;20043;-92
2022/10/19 04:33:39;;;;;;;20.73;12.27;;;;;;;11.10;100.00;99345.25;5121305;28;20040;-95
2022/10/19 04:36:08;;;;;;;22.63;11.65;;;;;;;11.01;100.00;99335.69;5122859;28;20062;-95
2022/10/19 04:38:35;;;;;;;20.40;11.18;;;;;;;11.16;100.00;99370.91;5122806;28;20043;-93
2022/10/19 04:41:02;;;;;;;22.88;11.82;;;;;;;10.92;100.00;99330.53;5122830;28;20088;-94
2022/10/19 04:43:29;;;;;;;24.08;12.55;;;;;;;10.96;100.00;99342.03;5121787;28;20040;-93
2022/10/19 04:45:55;;;;;;;25.02;12.50;;;;;;;10.89;100.00;99342.13;5121411;28;20079;-92
2022/10/19 04:48:21;;;;;;;23.63;13.07;;;;;;;11.10;100.00;99363.91;5121477;27;20523;-92
2022/10/19 04:50:46;;;;;;;20.90;11.02;;;;;;;11.08;100.00;99347.97;5120505;28;20043;-93
2022/10/19 04:53:14;;;;;;;24.98;12.45;;;;;;;10.97;100.00;99335.78;5120839;28;20039;-93
2022/10/19 04:55:40;;;;;;;24.95;11.77;;;;;;;11.04;100.00;99348.94;5120807;28;20410;-92
2022/10/19 04:58:06;;;;;;;69.25;13.30;;;;;;;11.07;100.00;99340.88;5122613;28;20039;-96
2022/10/19 05:00:33;;;;;;;73.60;14.63;;;;;;;11.12;100.00;99355.91;5122740;28;20531;-93
2022/10/19 05:02:59;;;;;;;108.47;17.08;;;;;;;10.94;100.00;99325.22;5121441;28;20052;-94
2022/10/19 05:05:25;;;;;;;192.73;20.13;;;;;;;11.01;100.00;99317.06;5121769;27;20043;-94
2022/10/19 05:07:51;;;;;;;70.63;14.30;;;;;;;11.08;100.00;99344.41;5117213;28;20047;-92
2022/10/19 05:10:18;;;;;;;30.88;12.95;;;;;;;11.09;100.00;99349.72;5116008;28;20035;-94
2022/10/19 05:12:45;;;;;;;25.77;11.63;;;;;;;11.23;100.00;99346.81;5116618;28;20044;-94
2022/10/19 05:15:11;;;;;;;24.50;12.30;;;;;;;11.19;100.00;99329.13;5116230;28;20051;-94
2022/10/19 05:17:36;;;;;;;23.92;11.57;;;;;;;11.06;100.00;99320.53;5115902;28;20067;-93
2022/10/19 05:20:03;;;;;;;28.13;11.80;;;;;;;11.16;100.00;99322.97;5114937;28;20040;-93
2022/10/19 05:22:28;;;;;;;34.25;12.57;;;;;;;11.11;100.00;99315.09;5115052;28;20047;-94
2022/10/19 05:24:54;;;;;;;25.17;11.98;;;;;;;11.08;100.00;99320.47;5115491;28;20040;-94
2022/10/19 05:27:21;;;;;;;21.52;11.65;;;;;;;11.01;100.00;99314.38;5115757;28;20088;-94
2022/10/19 05:29:47;;;;;;;24.67;11.93;;;;;;;11.11;100.00;99315.09;5115736;28;20457;-95
2022/10/19 05:32:13;;;;;;;20.67;11.05;;;;;;;10.98;100.00;99303.81;5115587;28;20131;-95
2022/10/19 05:34:39;;;;;;;20.30;10.95;;;;;;;10.97;100.00;99314.50;5115614;28;20040;-94
2022/10/19 05:37:04;;;;;;;19.95;10.80;;;;;;;10.94;100.00;99315.44;5115038;28;20043;-94
2022/10/19 05:39:30;;;;;;;52.97;13.38;;;;;;;10.99;100.00;99329.50;5115038;28;20523;-94
2022/10/19 05:41:56;;;;;;;22.13;11.15;;;;;;;11.06;100.00;99328.50;5117260;28;20046;-94
2022/10/19 05:44:23;;;;;;;20.17;10.45;;;;;;;10.98;100.00;99324.25;5117166;28;20055;-94
2022/10/19 05:46:50;;;;;;;20.52;10.15;;;;;;;10.93;100.00;99320.78;5119333;28;20046;-92
2022/10/19 05:49:19;;;;;;;18.58;10.23;;;;;;;10.82;100.00;99311.25;5118791;28;20043;-94
2022/10/19 05:51:45;;;;;;;;;;;;;;;11.04;100.00;99337.44;5119867;28;20044;-95
2022/10/19 05:54:11;;;;;;;67.43;12.88;;;;;;;11.01;100.00;99313.53;5119382;28;20019;-94
2022/10/19 05:56:38;;;;;;;91.78;14.23;;;;;;;11.16;100.00;99313.22;5119466;28;20048;-95
2022/10/19 05:59:05;;;;;;;21.80;11.80;;;;;;;11.15;100.00;99318.59;5119334;28;20493;-93
2022/10/19 06:01:33;;;;;;;68.35;12.63;;;;;;;11.25;100.00;99333.44;5100649;28;20040;-95
2022/10/19 06:04:01;;;;;;;80.10;14.45;;;;;;;11.16;100.00;99305.22;5111429;28;20040;-95
2022/10/19 06:06:27;;;;;;;90.70;14.95;;;;;;;11.12;100.00;99322.16;5123319;28;20040;-95
2022/10/19 06:08:55;;;;;;;121.13;14.85;;;;;;;11.27;100.00;99329.81;5120154;28;20040;-93
2022/10/19 06:11:22;;;;;;;70.38;15.10;;;;;;;11.15;100.00;99313.25;5120784;28;20044;-95
2022/10/19 06:13:49;;;;;;;74.82;16.10;;;;;;;11.13;100.00;99313.28;5121571;28;20035;-94
2022/10/19 06:16:16;;;;;;;47.75;15.45;;;;;;;11.24;100.00;99331.69;5120881;27;20070;-95
2022/10/19 06:18:44;;;;;;;32.13;14.90;;;;;;;11.20;100.00;99303.38;5121610;28;20044;-94
2022/10/19 06:21:13;;;;;;;31.33;15.23;;;;;;;11.30;100.00;99321.78;5124090;28;20047;-95
2022/10/19 06:23:39;;;;;;;27.50;13.10;;;;;;;11.42;100.00;99325.09;5123919;28;20063;-94
2022/10/19 06:26:06;;;;;;;28.27;13.23;;;;;;;11.39;100.00;99320.72;5124726;28;20071;-95
2022/10/19 06:28:33;;;;;;;26.10;13.55;;;;;;;11.45;100.00;99323.25;5122996;28;20052;-93
2022/10/19 06:30:59;;;;;;;26.00;12.48;;;;;;;11.54;100.00;99321.28;5124016;28;20488;-94
2022/10/19 06:33:25;;;;;;;26.90;12.10;;;;;;;11.68;100.00;99328.06;5124434;27;20044;-94
2022/10/19 06:35:53;;;;;;;43.10;13.75;;;;;;;11.93;100.00;99351.53;5124067;28;20043;-94
2022/10/19 06:38:19;;;;;;;27.85;11.20;;;;;;;11.93;100.00;99340.88;5123680;28;20043;-94
2022/10/19 06:40:45;;;;;;;28.15;12.25;;;;;;;11.92;100.00;99336.44;5121246;28;20400;-94
2022/10/19 06:43:11;;;;;;;36.03;11.77;;;;;;;12.16;100.00;99350.97;5119450;28;20132;-94
2022/10/19 06:45:37;;;;;;;51.67;12.52;;;;;;;12.16;100.00;99340.28;5118904;28;20496;-95
2022/10/19 06:48:03;;;;;;;28.70;14.32;;;;;;;12.18;100.00;99334.94;5120955;28;20081;-94
2022/10/19 06:50:30;;;;;;;28.38;13.70;;;;;;;12.24;100.00;99348.13;5122675;28;20071;-95
2022/10/19 06:52:58;;;;;;;28.50;14.38;;;;;;;12.33;100.00;99348.75;5121886;28;20104;-94
2022/10/19 06:55:24;;;;;;;72.20;27.95;;;;;;;12.43;100.00;99368.09;5120863;28;20048;-94
2022/10/19 06:57:50;;;;;;;137.93;36.40;;;;;;;12.47;100.00;99360.88;5120114;28;20135;-94
2022/10/19 07:00:16;;;;;;;191.82;67.20;;;;;;;12.41;100.00;99340.56;5122979;27;20054;-94
2022/10/19 07:02:42;;;;;;;196.65;91.20;;;;;;;12.40;100.00;99332.59;5118893;28;20584;-93
2022/10/19 07:05:08;;;;;;;145.65;70.07;;;;;;;12.52;100.00;99343.84;5121582;28;20067;-95
2022/10/19 07:07:34;;;;;;;78.82;29.45;;;;;;;12.65;100.00;99343.53;5122879;28;20400;-94
2022/10/19 07:10:03;;;;;;;38.17;17.75;;;;;;;12.72;100.00;99337.09;5123252;27;20508;-94
2022/10/19 07:12:28;;;;;;;40.28;17.50;;;;;;;12.95;100.00;99366.72;5122810;28;20099;-93
2022/10/19 07:14:55;;;;;;;87.88;19.73;;;;;;;12.91;100.00;99341.03;5121824;28;20079;-94
2022/10/19 07:17:21;;;;;;;84.28;18.83;;;;;;;13.04;100.00;99362.06;5121178;28;20392;-92
2022/10/19 07:19:47;;;;;;;94.82;19.85;;;;;;;13.06;100.00;99355.75;5121172;28;20051;-95
2022/10/19 07:22:12;;;;;;;155.75;43.97;;;;;;;13.15;100.00;99354.63;5120771;28;20055;-95
2022/10/19 07:24:38;;;;;;;88.50;35.72;;;;;;;13.15;100.00;99366.16;5121034;28;20088;-95
2022/10/19 07:27:05;;;;;;;91.07;36.78;;;;;;;13.09;100.00;99344.97;5119888;28;20040;-94
2022/10/19 07:29:31;;;;;;;124.22;38.53;;;;;;;13.11;100.00;99356.47;5119294;28;20039;-94
2022/10/19 07:31:58;;;;;;;82.88;33.30;;;;;;;13.10;100.00;99352.06;5119531;28;20107;-93
2022/10/19 07:34:23;;;;;;;79.55;30.38;;;;;;;13.17;100.00;99339.44;5122426;28;20036;-94
2022/10/19 07:36:50;;;;;;;55.65;31.45;;;;;;;13.45;100.00;99357.38;5120958;27;20040;-95
2022/10/19 07:39:16;;;;;;;52.80;25.80;;;;;;;13.49;100.00;99332.31;5121630;28;20096;-94
2022/10/19 07:41:42;;;;;;;55.35;25.85;;;;;;;13.78;100.00;99355.47;5119292;28;20048;-94
2022/10/19 07:44:10;;;;;;;53.95;26.45;;;;;;;13.79;100.00;99335.81;5119725;28;20043;-95
2022/10/19 07:46:37;;;;;;;54.42;23.17;;;;;;;13.95;100.00;99331.75;5118771;28;20072;-93
2022/10/19 07:49:05;;;;;;;47.50;22.70;;;;;;;14.15;100.00;99331.09;5119066;28;20096;-93
2022/10/19 07:51:31;;;;;;;40.97;20.10;;;;;;;14.30;100.00;99323.50;5118431;28;20063;-94
2022/10/19 07:53:57;;;;;;;46.58;20.02;;;;;;;14.56;100.00;99333.38;5117491;28;20039;-93
2022/10/19 07:56:25;;;;;;;58.28;19.35;;;;;;;14.73;100.00;99346.16;5117121;28;20054;-92
2022/10/19 07:58:52;;;;;;;37.90;18.92;;;;;;;14.65;100.00;99329.50;5116898;27;20040;-93
2022/10/19 08:01:22;;;;;;;33.05;16.20;;;;;;;14.78;100.00;99322.78;5116945;28;20122;-94
2022/10/19 08:03:50;;;;;;;37.08;17.95;;;;;;;14.90;100.00;99334.88;5116228;28;20036;-92
2022/10/19 08:06:17;;;;;;;42.70;17.90;;;;;;;14.91;100.00;99323.22;5116258;28;20126;-94
2022/10/19 08:08:45;;;;;;;38.47;17.92;;;;;;;14.81;100.00;99311.94;5116395;28;20043;-94
2022/10/19 08:11:12;;;;;;;38.72;19.48;;;;;;;14.90;100.00;99311.63;5115989;28;20040;-94
2022/10/19 08:13:38;;;;;;;38.60;19.52;;;;;;;15.20;100.00;99333.75;5114085;28;20032;-92
2022/10/19 08:16:05;;;;;;;36.70;19.02;;;;;;;15.14;98.83;99320.59;5114687;28;20044;-93
2022/10/19 08:18:32;;;;;;;38.83;19.23;;;;;;;15.28;98.05;99324.53;5114653;28;20040;-95
2022/10/19 08:21:01;;;;;;;38.55;18.50;;;;;;;15.32;96.68;99326.19;5114480;28;20387;-93
2022/10/19 08:23:27;;;;;;;45.17;19.60;;;;;;;15.23;96.93;99329.22;5108851;28;20048;-92
2022/10/19 08:25:57;;;;;;;41.72;19.60;;;;;;;15.08;99.16;99327.97;5114871;28;20063;-94
2022/10/19 08:28:23;;;;;;;44.28;19.77;;;;;;;14.86;100.00;99330.56;5115083;28;20034;-92
2022/10/19 08:30:49;;;;;;;43.42;20.65;;;;;;;14.80;100.00;99323.59;5115169;28;20035;-93
2022/10/19 08:33:14;;;;;;;46.75;19.83;;;;;;;14.91;100.00;99320.53;5114174;28;20036;-94
2022/10/19 08:35:41;;;;;;;61.67;24.33;;;;;;;14.94;100.00;99318.63;5115701;28;20039;-93
2022/10/19 08:38:07;;;;;;;56.90;21.63;;;;;;;14.83;100.00;99307.41;5115301;28;20059;-95
2022/10/19 08:40:33;;;;;;;50.72;21.83;;;;;;;15.08;100.00;99331.50;5114320;28;20074;-94
2022/10/19 08:43:04;;;;;;;47.05;20.55;;;;;;;15.28;100.00;99325.41;5113928;28;20067;-93
2022/10/19 08:45:41;;;;;;;48.72;21.98;;;;;;;15.38;100.00;99334.00;5114115;28;20118;-94
2022/10/19 08:48:21;;;;;;;49.78;22.13;;;;;;;15.37;99.72;99318.84;5113529;28;20545;-93
2022/10/19 08:50:50;;;;;;;55.35;23.30;;;;;;;15.51;98.09;99334.41;5113361;28;20050;-93
2022/10/19 08:53:21;;;;;;;58.97;21.98;;;;;;;15.66;99.25;99333.81;5116771;28;20046;-93
2022/10/19 08:56:00;;;;;;;46.78;21.08;;;;;;;15.75;99.57;99316.53;5114483;28;20074;-91
2022/10/19 08:58:38;;;;;;;46.97;20.70;;;;;;;15.98;98.77;99318.28;5111997;28;20032;-92
2022/10/19 09:01:08;;;;;;;47.10;22.13;;;;;;;16.10;94.92;99312.41;5113698;28;20048;-93
2022/10/19 09:03:41;;;;;;;48.70;21.02;;;;;;;16.12;94.97;99299.81;5111989;28;20127;-94
2022/10/19 09:06:20;;;;;;;41.10;21.27;;;;;;;16.30;93.28;99302.66;5115310;28;20039;-92
2022/10/19 09:08:47;;;;;;;49.80;21.73;;;;;;;16.41;92.06;99303.09;5114878;28;20065;-94
2022/10/19 09:11:15;;;;;;;43.05;20.08;;;;;;;16.40;92.50;99293.31;5116118;28;20121;-94
2022/10/19 09:13:43;;;;;;;47.50;21.52;;;;;;;16.36;91.61;99283.63;5114536;28;20044;-94
2022/10/19 09:16:13;;;;;;;50.17;21.75;;;;;;;16.62;91.78;99299.47;5114333;28;20118;-92
2022/10/19 09:18:39;;;;;;;46.67;21.95;;;;;;;16.92;91.77;99319.75;5116376;28;20044;-93
2022/10/19 09:21:13;;;;;;;40.55;20.45;;;;;;;17.07;90.26;99300.25;5116892;28;20036;-95
2022/10/19 09:23:44;;;;;;;46.70;20.70;;;;;;;17.10;89.97;99278.59;5112224;28;20048;-91
2022/10/19 09:26:14;;;;;;;41.90;21.92;;;;;;;17.28;88.61;99282.25;5118986;28;20043;-96
2022/10/19 09:28:47;;;;;;;49.60;22.75;;;;;;;17.36;87.88;99272.00;5119885;28;20048;-93
2022/10/19 09:31:19;;;;;;;48.42;22.55;;;;;;;17.47;88.14;99268.81;5118884;28;20046;-92
2022/10/19 09:33:49;;;;;;;46.75;22.77;;;;;;;17.73;86.90;99296.31;5117113;28;20036;-93
2022/10/19 09:36:16;;;;;;;44.95;23.83;;;;;;;17.78;87.53;99281.69;5116870;28;20043;-93
2022/10/19 09:38:42;;;;;;;60.42;27.83;;;;;;;17.63;86.86;99282.41;5117131;28;20059;-93
2022/10/19 09:41:17;;;;;;;56.40;28.23;;;;;;;17.52;89.07;99279.34;5117687;28;20557;-93
2022/10/19 09:43:49;;;;;;;76.50;32.80;;;;;;;17.53;89.49;99281.97;5114316;28;20419;-94
2022/10/19 09:46:26;;;;;;;79.25;31.75;;;;;;;17.74;89.26;99285.47;5117057;28;20049;-93
2022/10/19 09:48:52;;;;;;;72.88;32.60;;;;;;;17.96;89.26;99292.53;5117037;28;20036;-93
2022/10/19 09:51:20;;;;;;;75.22;34.88;;;;;;;17.99;87.25;99277.09;5120090;28;20039;-92
2022/10/19 09:53:49;;;;;;;79.47;33.20;;;;;;;18.03;88.06;99264.38;5119717;28;20055;-93
2022/10/19 09:56:19;;;;;;;75.35;31.77;;;;;;;18.27;86.98;99273.91;5117042;28;20181;-93
2022/10/19 09:58:47;;;;;;;67.75;28.48;;;;;;;18.43;87.32;99268.63;5117700;28;20043;-92
2022/10/19 10:01:29;;;;;;;63.58;28.00;;;;;;;18.74;87.03;99283.19;5117697;28;20082;-93
2022/10/19 10:04:04;;;;;;;59.45;26.20;;;;;;;18.89;85.12;99270.78;5115713;28;20036;-92
2022/10/19 10:06:32;;;;;;;64.65;27.63;;;;;;;19.09;85.34;99280.47;5118468;28;20044;-93
2022/10/19 10:08:58;;;;;;;42.47;19.67;;;;;;;19.15;78.62;99246.91;5118265;28;20108;-92
2022/10/19 10:11:27;;;;;;;33.00;17.25;;;;;;;19.53;76.44;99260.09;5116143;28;20039;-93
2022/10/19 10:13:54;;;;;;;28.33;14.98;;;;;;;19.66;76.31;99244.97;5114306;28;20047;-92
2022/10/19 10:16:23;;;;;;;32.35;15.98;;;;;;;19.91;71.22;99260.69;5113743;28;20411;-95
2022/10/19 10:18:54;;;;;;;33.50;16.63;;;;;;;20.00;71.06;99235.84;5114602;28;20051;-93
2022/10/19 10:21:21;;;;;;;33.20;14.98;;;;;;;20.24;70.43;99255.13;5116153;28;20118;-94
2022/10/19 10:24:00;;;;;;;28.42;14.20;;;;;;;20.31;71.14;99231.31;5116027;28;20085;-94
2022/10/19 10:26:27;;;;;;;31.92;14.82;;;;;;;20.41;68.12;99242.47;5114861;28;20043;-92
2022/10/19 10:28:53;;;;;;;28.35;14.10;;;;;;;20.62;68.27;99253.81;5115341;28;20036;-91
2022/10/19 10:31:23;;;;;;;26.05;13.98;;;;;;;20.51;66.87;99233.72;5118012;28;20043;-92
2022/10/19 10:33:56;;;;;;;26.33;14.65;;;;;;;20.68;67.29;99234.53;5117442;28;20131;-91
2022/10/19 10:36:25;;;;;;;28.92;15.77;;;;;;;20.67;66.96;99252.59;5119289;28;20126;-93
2022/10/19 10:39:02;;;;;;;25.55;14.18;;;;;;;20.51;67.32;99216.59;5119390;28;20063;-91
2022/10/19 10:41:35;;;;;;;26.98;14.25;;;;;;;20.57;66.58;99216.28;5116488;28;20043;-94
2022/10/19 10:44:05;;;;;;;27.27;14.18;;;;;;;20.56;67.59;99219.03;5118141;28;20055;-90
2022/10/19 10:46:34;;;;;;;26.35;15.07;;;;;;;20.66;67.45;99215.69;5114045;28;20104;-90
2022/10/19 10:49:02;;;;;;;25.77;14.10;;;;;;;20.61;68.13;99195.34;5115631;28;20039;-92
2022/10/19 10:51:33;;;;;;;29.67;15.73;;;;;;;20.77;67.02;99208.78;5117196;28;20560;-90
2022/10/19 10:54:16;;;;;;;25.80;13.45;;;;;;;20.95;66.10;99201.34;5115687;28;20777;-92
2022/10/19 10:56:56;;;;;;;23.52;13.00;;;;;;;21.09;65.25;99201.34;5116612;28;20365;-92
2022/10/19 10:59:25;;;;;;;21.38;11.63;;;;;;;21.20;62.49;99212.34;5118788;28;20048;-92
2022/10/19 11:01:59;;;;;;;22.13;12.25;;;;;;;21.34;60.80;99206.06;5115333;28;20070;-92
2022/10/19 11:04:28;;;;;;;22.25;12.32;;;;;;;21.33;61.54;99191.66;5117852;28;20384;-92
2022/10/19 11:06:59;;;;;;;24.35;12.35;;;;;;;21.25;61.82;99191.31;5118198;28;20062;-92
2022/10/19 11:09:30;;;;;;;18.98;10.55;;;;;;;21.39;62.33;99198.50;5117424;28;20036;-93
2022/10/19 11:12:01;;;;;;;20.45;10.95;;;;;;;21.50;60.13;99190.59;5118650;28;20439;-92
2022/10/19 11:14:35;;;;;;;20.90;11.40;;;;;;;21.44;59.65;99173.91;5116208;28;20036;-91
2022/10/19 11:17:05;;;;;;;19.60;11.13;;;;;;;21.49;59.20;99186.16;5118549;28;20515;-95